createdAt,value
2023-05-24T00:00:32.941Z,97706.00
2023-05-24T00:03:00.693Z,97715.00
2023-05-24T00:05:31.598Z,97699.00
2023-05-24T00:08:00.173Z,97701.00
2023-05-24T00:10:27.765Z,97700.00
2023-05-24T00:12:55.300Z,97698.00
2023-05-24T00:15:22.782Z,97706.00
2023-05-24T00:17:50.207Z,97699.00
2023-05-24T00:20:17.725Z,97698.00
2023-05-24T00:22:45.444Z,97693.00
2023-05-24T00:25:12.941Z,97699.00
2023-05-24T00:27:40.356Z,97685.00
2023-05-24T00:30:08.448Z,97694.00
2023-05-24T00:32:36.323Z,97697.00
2023-05-24T00:35:04.146Z,97700.00
2023-05-24T00:37:31.489Z,97705.00
2023-05-24T00:39:58.861Z,97698.00
2023-05-24T00:42:26.153Z,97696.00
2023-05-24T00:44:53.627Z,97697.00
2023-05-24T00:47:21.529Z,97697.00
2023-05-24T00:49:48.895Z,97694.00
2023-05-24T00:52:17.179Z,97691.00
2023-05-24T00:54:45.053Z,97684.00
2023-05-24T00:57:14.642Z,97685.00
2023-05-24T00:59:43.263Z,97689.00
2023-05-24T01:02:10.661Z,97692.00
2023-05-24T01:04:39.297Z,97693.00
2023-05-24T01:07:17.614Z,97690.00
2023-05-24T01:10:04.533Z,97695.00
2023-05-24T01:13:25.813Z,97687.00
2023-05-24T01:16:13.058Z,97682.00
2023-05-24T01:18:46.936Z,97684.00
2023-05-24T01:21:48.771Z,97682.00
2023-05-24T01:24:29.404Z,97687.00
2023-05-24T01:27:05.972Z,97684.00
2023-05-24T01:29:36.817Z,97683.00
2023-05-24T01:32:04.734Z,97680.00
2023-05-24T01:34:32.303Z,97675.00
2023-05-24T01:36:59.634Z,97675.00
2023-05-24T01:39:30.082Z,97680.00
2023-05-24T01:42:06.894Z,97669.00
2023-05-24T01:45:14.190Z,97674.00
2023-05-24T01:48:04.652Z,97683.00
2023-05-24T01:50:49.135Z,97673.00
2023-05-24T01:53:21.067Z,97682.00
2023-05-24T01:55:54.213Z,97679.00
2023-05-24T01:58:24.224Z,97677.00
2023-05-24T02:00:52.864Z,97680.00
2023-05-24T02:03:21.958Z,97680.00
2023-05-24T02:05:49.672Z,97691.00
2023-05-24T02:08:18.116Z,97682.00
2023-05-24T02:10:45.495Z,97683.00
2023-05-24T02:13:12.834Z,97679.00
2023-05-24T02:15:42.138Z,97678.00
2023-05-24T02:18:11.999Z,97674.00
2023-05-24T02:20:39.571Z,97682.00
2023-05-24T02:23:08.305Z,97677.00
2023-05-24T02:25:36.103Z,97680.00
2023-05-24T02:28:03.611Z,97685.00
2023-05-24T02:30:30.906Z,97685.00
2023-05-24T02:32:58.628Z,97685.00
2023-05-24T02:35:26.975Z,97686.00
2023-05-24T02:37:54.576Z,97679.00
2023-05-24T02:40:22.041Z,97678.00
2023-05-24T02:42:49.489Z,97689.00
2023-05-24T02:45:17.296Z,97695.00
2023-05-24T02:47:44.910Z,97690.00
2023-05-24T02:50:12.503Z,97694.00
2023-05-24T02:52:39.930Z,97700.00
2023-05-24T02:55:08.983Z,97701.00
2023-05-24T02:57:38.290Z,97693.00
2023-05-24T03:00:10.169Z,97700.00
2023-05-24T03:02:41.544Z,97695.00
2023-05-24T03:05:09.995Z,97698.00
2023-05-24T03:07:37.594Z,97702.00
2023-05-24T03:10:06.232Z,97705.00
2023-05-24T03:12:33.531Z,97705.00
2023-05-24T03:15:01.204Z,97705.00
2023-05-24T03:17:28.589Z,97707.00
2023-05-24T03:19:56.069Z,97710.00
2023-05-24T03:22:23.520Z,97707.00
2023-05-24T03:24:51.166Z,97706.00
2023-05-24T03:27:18.740Z,97710.00
2023-05-24T03:29:46.179Z,97723.00
2023-05-24T03:32:13.433Z,97711.00
2023-05-24T03:34:41.290Z,97722.00
2023-05-24T03:37:08.609Z,97718.00
2023-05-24T03:39:35.979Z,97714.00
2023-05-24T03:42:03.404Z,97715.00
2023-05-24T03:44:30.972Z,97721.00
2023-05-24T03:46:58.531Z,97718.00
2023-05-24T03:49:25.943Z,97725.00
2023-05-24T03:51:53.620Z,97724.00
2023-05-24T03:58:12.906Z,97729.00
2023-05-24T04:00:40.606Z,97729.00
2023-05-24T04:03:09.387Z,97723.00
2023-05-24T04:05:37.008Z,97734.00
2023-05-24T04:08:04.508Z,97733.00
2023-05-24T04:10:31.927Z,97723.00
2023-05-24T04:13:01.120Z,97728.00
2023-05-24T04:15:28.741Z,97724.00
2023-05-24T04:17:56.331Z,97722.00
2023-05-24T04:20:25.974Z,97725.00
2023-05-24T04:22:54.674Z,97715.00
2023-05-24T04:25:23.079Z,97711.00
2023-05-24T04:27:50.862Z,97715.00
2023-05-24T04:30:18.932Z,97721.00
2023-05-24T04:32:46.920Z,97723.00
2023-05-24T04:35:15.886Z,97718.00
2023-05-24T04:37:43.343Z,97721.00
2023-05-24T04:40:11.979Z,97723.00
2023-05-24T04:42:39.737Z,97720.00
2023-05-24T04:45:08.370Z,97712.00
2023-05-24T04:47:36.461Z,97717.00
2023-05-24T04:50:05.152Z,97726.00
2023-05-24T04:52:33.584Z,97726.00
2023-05-24T04:55:01.772Z,97736.00
2023-05-24T04:57:29.258Z,97739.00
2023-05-24T04:59:56.590Z,97731.00
2023-05-24T05:03:09.035Z,97740.00
2023-05-24T05:05:36.837Z,97745.00
2023-05-24T05:08:05.173Z,97744.00
2023-05-24T05:10:32.801Z,97744.00
2023-05-24T05:13:00.089Z,97745.00
2023-05-24T05:15:28.043Z,97754.00
2023-05-24T05:17:55.628Z,97746.00
2023-05-24T05:20:25.271Z,97749.00
2023-05-24T05:22:52.904Z,97759.00
2023-05-24T05:25:20.795Z,97753.00
2023-05-24T05:27:48.200Z,97751.00
2023-05-24T05:30:16.318Z,97745.00
2023-05-24T05:32:43.822Z,97746.00
2023-05-24T05:35:11.454Z,97745.00
2023-05-24T05:37:38.983Z,97756.00
2023-05-24T05:40:07.469Z,97749.00
2023-05-24T05:42:34.817Z,97756.00
2023-05-24T05:45:02.154Z,97746.00
2023-05-24T05:47:29.769Z,97742.00
2023-05-24T05:49:57.013Z,97735.00
2023-05-24T05:52:24.503Z,97746.00
2023-05-24T05:54:52.037Z,97750.00
2023-05-24T05:57:24.385Z,97746.00
2023-05-24T05:59:52.501Z,97747.00
2023-05-24T06:02:19.962Z,97750.00
2023-05-24T06:04:47.614Z,97761.00
2023-05-24T06:07:15.278Z,97749.00
2023-05-24T06:09:43.098Z,97755.00
2023-05-24T06:12:10.879Z,97745.00
2023-05-24T06:14:38.723Z,97753.00
2023-05-24T06:17:07.603Z,97748.00
2023-05-24T06:19:34.972Z,97744.00
2023-05-24T06:22:02.302Z,97751.00
2023-05-24T06:24:30.023Z,97745.00
2023-05-24T06:26:58.486Z,97753.00
2023-05-24T06:29:26.476Z,97758.00
2023-05-24T06:31:54.092Z,97751.00
2023-05-24T06:34:22.712Z,97757.00
2023-05-24T06:36:51.848Z,97756.00
2023-05-24T06:39:19.643Z,97759.00
2023-05-24T06:41:47.445Z,97759.00
2023-05-24T06:44:15.311Z,97766.00
2023-05-24T06:46:42.791Z,97775.00
2023-05-24T06:49:10.926Z,97772.00
2023-05-24T06:51:38.653Z,97761.00
2023-05-24T06:54:06.009Z,97760.00
2023-05-24T06:56:33.303Z,97762.00
2023-05-24T06:59:00.959Z,97757.00
2023-05-24T07:01:29.560Z,97766.00
2023-05-24T07:03:57.455Z,97766.00
2023-05-24T07:06:25.716Z,97771.00
2023-05-24T07:08:53.429Z,97762.00
2023-05-24T07:11:20.985Z,97770.00
2023-05-24T07:13:48.371Z,97770.00
2023-05-24T07:16:16.199Z,97769.00
2023-05-24T07:18:43.762Z,97762.00
2023-05-24T07:21:11.100Z,97771.00
2023-05-24T07:23:38.647Z,97761.00
2023-05-24T07:26:06.456Z,97770.00
2023-05-24T07:28:35.043Z,97770.00
2023-05-24T07:31:03.044Z,97756.00
2023-05-24T07:33:30.532Z,97758.00
2023-05-24T07:35:58.904Z,97748.00
2023-05-24T07:38:26.977Z,97767.00
2023-05-24T07:40:54.515Z,97758.00
2023-05-24T07:43:21.852Z,97753.00
2023-05-24T07:45:49.150Z,97753.00
2023-05-24T07:48:17.630Z,97753.00
2023-05-24T07:50:48.794Z,97757.00
2023-05-24T07:53:16.901Z,97760.00
2023-05-24T07:55:47.849Z,97758.00
2023-05-24T07:58:15.839Z,97760.00
2023-05-24T08:00:43.375Z,97752.00
2023-05-24T08:03:14.095Z,97753.00
2023-05-24T08:05:42.489Z,97750.00
2023-05-24T08:08:11.279Z,97741.00
2023-05-24T08:10:38.732Z,97746.00
2023-05-24T08:13:06.278Z,97749.00
2023-05-24T08:15:34.072Z,97746.00
2023-05-24T08:18:02.242Z,97746.00
2023-05-24T08:20:29.745Z,97748.00
2023-05-24T08:22:57.182Z,97744.00
2023-05-24T08:25:24.791Z,97749.00
2023-05-24T08:27:52.750Z,97742.00
2023-05-24T08:30:20.259Z,97738.00
2023-05-24T08:32:48.364Z,97735.00
2023-05-24T08:35:20.993Z,97737.00
2023-05-24T08:37:50.223Z,97737.00
2023-05-24T08:40:18.609Z,97744.00
2023-05-24T08:42:47.362Z,97741.00
2023-05-24T08:45:16.882Z,97741.00
2023-05-24T08:47:45.436Z,97742.00
2023-05-24T08:50:13.968Z,97743.00
2023-05-24T08:52:43.210Z,97746.00
2023-05-24T08:55:12.992Z,97733.00
2023-05-24T08:57:41.914Z,97735.00
2023-05-24T09:00:13.229Z,97738.00
2023-05-24T09:02:42.916Z,97742.00
2023-05-24T09:05:17.371Z,97748.00
2023-05-24T09:07:46.471Z,97744.00
2023-05-24T09:10:14.063Z,97752.00
2023-05-24T09:12:49.443Z,97753.00
2023-05-24T09:15:16.896Z,97755.00
2023-05-24T09:17:45.004Z,97757.00
2023-05-24T09:20:14.341Z,97757.00
2023-05-24T09:22:44.281Z,97759.00
2023-05-24T09:25:15.310Z,97754.00
2023-05-24T09:27:49.635Z,97766.00
2023-05-24T09:30:17.309Z,97752.00
2023-05-24T09:33:00.392Z,97756.00
2023-05-24T09:35:29.147Z,97757.00
2023-05-24T09:38:00.258Z,97749.00
2023-05-24T09:40:29.995Z,97748.00
2023-05-24T09:43:11.437Z,97753.00
2023-05-24T09:45:47.432Z,97742.00
2023-05-24T09:48:18.964Z,97743.00
2023-05-24T09:51:10.047Z,97743.00
2023-05-24T09:53:38.919Z,97755.00
2023-05-24T09:56:08.824Z,97749.00
2023-05-24T09:58:37.049Z,97744.00
2023-05-24T10:01:08.367Z,97738.00
2023-05-24T10:03:38.090Z,97745.00
2023-05-24T10:06:12.330Z,97748.00
2023-05-24T10:08:40.714Z,97751.00
2023-05-24T10:11:08.467Z,97738.00
2023-05-24T10:13:37.225Z,97750.00
2023-05-24T10:16:05.171Z,97744.00
2023-05-24T10:18:33.010Z,97745.00
2023-05-24T10:21:03.228Z,97745.00
2023-05-24T10:23:32.933Z,97743.00
2023-05-24T10:26:08.266Z,97739.00
2023-05-24T10:28:45.005Z,97737.00
2023-05-24T10:31:31.644Z,97734.00
2023-05-24T10:34:07.947Z,97738.00
2023-05-24T10:36:40.750Z,97741.00
2023-05-24T10:39:14.308Z,97743.00
2023-05-24T10:41:42.721Z,97741.00
2023-05-24T10:44:14.986Z,97739.00
2023-05-24T10:47:10.195Z,97746.00
2023-05-24T10:49:40.134Z,97747.00
2023-05-24T10:52:13.842Z,97750.00
2023-05-24T10:54:52.548Z,97747.00
2023-05-24T10:57:30.997Z,97747.00
2023-05-24T10:59:59.097Z,97747.00
2023-05-24T11:02:28.902Z,97742.00
2023-05-24T11:04:57.019Z,97737.00
2023-05-24T11:07:25.284Z,97737.00
2023-05-24T11:10:00.061Z,97738.00
2023-05-24T11:12:38.873Z,97729.00
2023-05-24T11:15:10.316Z,97731.00
2023-05-24T11:18:14.665Z,97729.00
2023-05-24T11:20:47.461Z,97735.00
2023-05-24T11:23:19.694Z,97727.00
2023-05-24T11:25:50.340Z,97727.00
2023-05-24T11:28:19.879Z,97728.00
2023-05-24T11:30:48.682Z,97728.00
2023-05-24T11:33:24.439Z,97726.00
2023-05-24T11:35:55.066Z,97728.00
2023-05-24T11:38:25.037Z,97725.00
2023-05-24T11:40:52.815Z,97725.00
2023-05-24T11:43:23.397Z,97719.00
2023-05-24T11:45:52.315Z,97724.00
2023-05-24T11:48:21.610Z,97721.00
2023-05-24T11:50:50.433Z,97725.00
2023-05-24T11:53:21.076Z,97726.00
2023-05-24T11:55:49.290Z,97723.00
2023-05-24T11:58:44.846Z,97714.00
2023-05-24T12:01:28.555Z,97715.00
2023-05-24T12:03:56.297Z,97714.00
2023-05-24T12:06:24.240Z,97705.00
2023-05-24T12:08:51.637Z,97714.00
2023-05-24T12:11:19.407Z,97710.00
2023-05-24T12:15:02.975Z,97711.00
2023-05-24T12:17:31.410Z,97712.00
2023-05-24T12:19:58.816Z,97714.00
2023-05-24T12:22:32.029Z,97708.00
2023-05-24T12:24:59.461Z,97717.00
2023-05-24T12:27:31.473Z,97719.00
2023-05-24T12:30:08.091Z,97718.00
2023-05-24T12:32:35.831Z,97712.00
2023-05-24T12:35:05.075Z,97720.00
2023-05-24T12:37:32.743Z,97718.00
2023-05-24T12:40:02.100Z,97718.00
2023-05-24T12:42:31.053Z,97712.00
2023-05-24T12:44:58.512Z,97726.00
2023-05-24T12:47:26.278Z,97730.00
2023-05-24T12:49:53.544Z,97728.00
2023-05-24T12:52:21.461Z,97724.00
2023-05-24T12:54:48.793Z,97735.00
2023-05-24T12:57:16.502Z,97732.00
2023-05-24T12:59:43.960Z,97734.00
2023-05-24T13:02:11.471Z,97735.00
2023-05-24T13:04:38.799Z,97731.00
2023-05-24T13:07:06.596Z,97739.00
2023-05-24T13:09:34.739Z,97733.00
2023-05-24T13:12:02.412Z,97739.00
2023-05-24T13:14:29.725Z,97743.00
2023-05-24T13:16:57.267Z,97741.00
2023-05-24T13:19:25.267Z,97750.00
2023-05-24T13:21:52.878Z,97760.00
2023-05-24T13:24:20.484Z,97760.00
2023-05-24T13:26:48.023Z,97757.00
2023-05-24T13:31:45.895Z,97761.00
2023-05-24T13:34:13.747Z,97768.00
2023-05-24T13:36:41.183Z,97756.00
2023-05-24T13:41:41.861Z,97765.00
2023-05-24T13:44:10.551Z,97762.00
2023-05-24T13:46:38.967Z,97762.00
2023-05-24T13:49:09.627Z,97765.00
2023-05-24T13:51:38.182Z,97766.00
2023-05-24T13:54:08.041Z,97768.00
2023-05-24T13:56:36.971Z,97770.00
2023-05-24T13:59:06.337Z,97777.00
2023-05-24T14:01:36.743Z,97777.00
2023-05-24T14:04:05.840Z,97784.00
2023-05-24T14:06:34.755Z,97779.00
2023-05-24T14:09:02.195Z,97784.00
2023-05-24T14:11:31.965Z,97792.00
2023-05-24T14:16:31.618Z,97797.00
2023-05-24T14:18:59.528Z,97796.00
2023-05-24T14:21:27.332Z,97799.00
2023-05-24T14:23:54.946Z,97805.00
2023-05-24T14:26:24.129Z,97805.00
2023-05-24T14:28:54.445Z,97809.00
2023-05-24T14:31:23.734Z,97810.00
2023-05-24T14:33:51.162Z,97812.00
2023-05-24T14:36:18.672Z,97803.00
2023-05-24T14:38:46.399Z,97810.00
2023-05-24T14:41:13.758Z,97818.00
2023-05-24T14:43:42.574Z,97824.00
2023-05-24T14:46:10.023Z,97831.00
2023-05-24T14:48:37.580Z,97835.00
2023-05-24T14:51:05.058Z,97835.00
2023-05-24T14:53:32.514Z,97840.00
2023-05-24T14:55:59.896Z,97839.00
2023-05-24T14:58:27.475Z,97838.00
2023-05-24T15:00:54.949Z,97833.00
2023-05-24T15:03:23.450Z,97836.00
2023-05-24T15:05:52.650Z,97838.00
2023-05-24T15:08:20.153Z,97836.00
2023-05-24T15:10:48.318Z,97827.00
2023-05-24T15:13:15.885Z,97843.00
2023-05-24T15:15:43.500Z,97843.00
2023-05-24T15:18:11.174Z,97837.00
2023-05-24T15:20:38.628Z,97840.00
2023-05-24T15:23:06.597Z,97841.00
2023-05-24T15:25:33.913Z,97841.00
2023-05-24T15:28:02.202Z,97838.00
2023-05-24T15:30:30.055Z,97833.00
2023-05-24T15:32:57.523Z,97840.00
2023-05-24T15:35:24.921Z,97835.00
2023-05-24T15:37:52.510Z,97836.00
2023-05-24T15:40:23.981Z,97823.00
2023-05-24T15:42:53.347Z,97840.00
2023-05-24T15:45:21.205Z,97835.00
2023-05-24T15:47:48.745Z,97823.00
2023-05-24T15:50:16.776Z,97827.00
2023-05-24T15:52:44.193Z,97834.00
2023-05-24T15:55:11.542Z,97832.00
2023-05-24T15:57:39.122Z,97828.00
2023-05-24T16:00:07.893Z,97828.00
2023-05-24T16:02:35.329Z,97830.00
2023-05-24T16:05:02.776Z,97834.00
2023-05-24T16:07:30.175Z,97824.00
2023-05-24T16:09:57.954Z,97825.00
2023-05-24T16:14:53.707Z,97834.00
2023-05-24T16:17:21.221Z,97833.00
2023-05-24T16:19:49.884Z,97828.00
2023-05-24T16:22:17.851Z,97835.00
2023-05-24T16:24:46.163Z,97832.00
2023-05-24T16:27:13.746Z,97838.00
2023-05-24T16:29:41.189Z,97840.00
2023-05-24T16:32:09.452Z,97841.00
2023-05-24T16:34:54.893Z,97840.00
2023-05-24T16:37:23.948Z,97847.00
2023-05-24T16:39:51.344Z,97844.00
2023-05-24T16:42:19.005Z,97844.00
2023-05-24T16:44:46.355Z,97850.00
2023-05-24T16:47:13.777Z,97851.00
2023-05-24T16:49:41.077Z,97845.00
2023-05-24T16:52:09.016Z,97847.00
2023-05-24T16:54:36.367Z,97842.00
2023-05-24T16:57:04.328Z,97853.00
2023-05-24T16:59:31.817Z,97844.00
2023-05-24T17:01:59.440Z,97848.00
2023-05-24T17:04:26.819Z,97854.00
2023-05-24T17:06:54.271Z,97855.00
2023-05-24T17:09:21.602Z,97846.00
2023-05-24T17:11:50.670Z,97851.00
2023-05-24T17:14:18.778Z,97854.00
2023-05-24T17:16:46.217Z,97852.00
2023-05-24T17:19:14.268Z,97853.00
2023-05-24T17:21:42.155Z,97858.00
2023-05-24T17:24:09.557Z,97858.00
2023-05-24T17:26:39.480Z,97862.00
2023-05-24T17:29:07.112Z,97863.00
2023-05-24T17:31:34.612Z,97860.00
2023-05-24T17:34:02.214Z,97869.00
2023-05-24T17:36:29.734Z,97857.00
2023-05-24T17:38:57.110Z,97861.00
2023-05-24T17:41:24.448Z,97855.00
2023-05-24T17:43:51.779Z,97853.00
2023-05-24T17:46:19.106Z,97859.00
2023-05-24T17:48:47.989Z,97869.00
2023-05-24T17:51:18.388Z,97859.00
2023-05-24T17:53:47.088Z,97858.00
2023-05-24T17:56:14.363Z,97858.00
2023-05-24T17:58:41.806Z,97865.00
2023-05-24T18:01:11.699Z,97857.00
2023-05-24T18:03:41.318Z,97848.00
2023-05-24T18:06:10.119Z,97861.00
2023-05-24T18:08:42.602Z,97858.00
2023-05-24T18:11:13.104Z,97850.00
2023-05-24T18:13:44.185Z,97858.00
2023-05-24T18:16:12.929Z,97870.00
2023-05-24T18:18:41.047Z,97862.00
2023-05-24T18:21:13.367Z,97874.00
2023-05-24T18:23:41.790Z,97868.00
2023-05-24T18:26:11.533Z,97870.00
2023-05-24T18:28:41.585Z,97876.00
2023-05-24T18:31:14.992Z,97875.00
2023-05-24T18:33:43.559Z,97874.00
2023-05-24T18:36:12.836Z,97881.00
2023-05-24T18:38:41.008Z,97880.00
2023-05-24T18:41:12.575Z,97874.00
2023-05-24T18:43:40.212Z,97872.00
2023-05-24T18:46:07.761Z,97881.00
2023-05-24T18:48:35.221Z,97897.00
2023-05-24T18:51:03.204Z,97891.00
2023-05-24T18:53:30.701Z,97898.00
2023-05-24T18:55:58.197Z,97897.00
2023-05-24T18:58:25.839Z,97892.00
2023-05-24T19:00:53.537Z,97909.00
2023-05-24T19:03:22.312Z,97905.00
2023-05-24T19:05:50.177Z,97910.00
2023-05-24T19:08:18.619Z,97910.00
2023-05-24T19:10:46.705Z,97916.00
2023-05-24T19:13:15.055Z,97917.00
2023-05-24T19:15:42.680Z,97917.00
2023-05-24T19:18:10.483Z,97921.00
2023-05-24T19:20:38.078Z,97912.00
2023-05-24T19:23:05.887Z,97920.00
2023-05-24T19:25:41.215Z,97924.00
2023-05-24T19:28:11.306Z,97922.00
2023-05-24T19:30:38.762Z,97934.00
2023-05-24T19:33:07.983Z,97933.00
2023-05-24T19:35:36.875Z,97933.00
2023-05-24T19:38:04.349Z,97937.00
2023-05-24T19:40:31.759Z,97931.00
2023-05-24T19:42:59.177Z,97934.00
2023-05-24T19:45:27.406Z,97944.00
2023-05-24T19:47:54.962Z,97938.00
2023-05-24T19:50:22.514Z,97934.00
2023-05-24T19:52:49.939Z,97945.00
2023-05-24T19:55:17.369Z,97946.00
2023-05-24T19:57:44.761Z,97936.00
2023-05-24T20:00:14.126Z,97940.00
2023-05-24T20:02:41.893Z,97937.00
2023-05-24T20:05:09.787Z,97935.00
2023-05-24T20:07:37.294Z,97946.00
2023-05-24T20:10:05.874Z,97934.00
2023-05-24T20:12:34.951Z,97929.00
2023-05-24T20:15:02.456Z,97931.00
2023-05-24T20:17:30.557Z,97941.00
2023-05-24T20:19:58.014Z,97945.00
2023-05-24T20:22:25.588Z,97942.00
2023-05-24T20:24:53.105Z,97947.00
2023-05-24T20:27:20.610Z,97949.00
2023-05-24T20:29:48.060Z,97951.00
2023-05-24T20:32:17.026Z,97945.00
2023-05-24T20:34:44.438Z,97941.00
2023-05-24T20:37:11.887Z,97932.00
2023-05-24T20:39:40.942Z,97939.00
2023-05-24T20:42:08.615Z,97936.00
2023-05-24T20:44:36.055Z,97939.00
2023-05-24T20:47:03.712Z,97942.00
2023-05-24T20:49:31.393Z,97948.00
2023-05-24T20:51:59.108Z,97951.00
2023-05-24T20:54:28.004Z,97948.00
2023-05-24T20:56:56.047Z,97946.00
2023-05-24T20:59:23.426Z,97950.00
2023-05-24T21:01:51.134Z,97956.00
2023-05-24T21:04:19.976Z,97962.00
2023-05-24T21:06:47.582Z,97963.00
2023-05-24T21:09:15.541Z,97960.00
2023-05-24T21:11:44.650Z,97966.00
2023-05-24T21:14:12.117Z,97959.00
2023-05-24T21:16:39.949Z,97956.00
2023-05-24T21:19:07.556Z,97966.00
2023-05-24T21:21:35.000Z,97957.00
2023-05-24T21:24:02.898Z,97961.00
2023-05-24T21:26:30.505Z,97954.00
2023-05-24T21:28:58.369Z,97950.00
2023-05-24T21:31:27.171Z,97960.00
2023-05-24T21:33:56.831Z,97964.00
2023-05-24T21:36:24.616Z,97957.00
2023-05-24T21:38:52.040Z,97962.00
2023-05-24T21:41:19.547Z,97953.00
2023-05-24T21:43:47.173Z,97962.00
2023-05-24T21:46:14.728Z,97962.00
2023-05-24T21:48:42.217Z,97960.00
2023-05-24T21:51:09.895Z,97964.00
2023-05-24T21:53:37.444Z,97973.00
2023-05-24T21:56:05.217Z,97968.00
2023-05-24T21:58:32.702Z,97973.00
2023-05-24T22:01:00.150Z,97973.00
2023-05-24T22:03:28.542Z,97969.00
2023-05-24T22:05:57.076Z,97972.00
2023-05-24T22:08:25.286Z,97966.00
2023-05-24T22:10:52.882Z,97973.00
2023-05-24T22:13:20.806Z,97980.00
2023-05-24T22:15:48.271Z,97983.00
2023-05-24T22:18:21.371Z,97987.00
2023-05-24T22:20:51.098Z,97981.00
2023-05-24T22:23:18.512Z,97981.00
2023-05-24T22:25:45.894Z,97977.00
2023-05-24T22:28:13.344Z,97984.00
2023-05-24T22:30:41.595Z,97984.00
2023-05-24T22:33:09.288Z,97988.00
2023-05-24T22:35:36.679Z,97986.00
2023-05-24T22:38:04.136Z,97984.00
2023-05-24T22:40:32.202Z,97985.00
2023-05-24T22:42:59.596Z,97980.00
2023-05-24T22:45:27.185Z,97984.00
2023-05-24T22:47:58.629Z,97974.00
2023-05-24T22:50:27.569Z,97980.00
2023-05-24T22:52:57.002Z,97980.00
2023-05-24T22:55:24.467Z,97982.00
2023-05-24T22:57:51.874Z,97985.00
2023-05-24T23:00:20.829Z,97966.00
2023-05-24T23:02:48.577Z,97973.00
2023-05-24T23:05:16.441Z,97967.00
2023-05-24T23:07:43.985Z,97971.00
2023-05-24T23:10:11.524Z,97969.00
2023-05-24T23:12:43.465Z,97970.00
2023-05-24T23:15:16.862Z,97974.00
2023-05-24T23:17:45.009Z,97971.00
2023-05-24T23:20:14.635Z,97982.00
2023-05-24T23:22:42.265Z,97981.00
2023-05-24T23:25:10.732Z,97982.00
2023-05-24T23:27:38.673Z,97979.00
2023-05-24T23:30:07.314Z,97982.00
2023-05-24T23:32:35.615Z,97979.00
2023-05-24T23:35:03.305Z,97973.00
2023-05-24T23:37:30.891Z,97964.00
2023-05-24T23:40:02.498Z,97963.00
2023-05-24T23:42:30.073Z,97959.00
2023-05-24T23:44:57.493Z,97951.00
2023-05-24T23:47:25.467Z,97952.00
2023-05-24T23:49:53.019Z,97950.00
2023-05-24T23:52:21.140Z,97951.00
2023-05-24T23:54:48.605Z,97940.00
2023-05-24T23:57:18.086Z,97952.00
2023-05-24T23:59:45.552Z,97947.00
